createdAt,value
2022-09-24T00:01:43.970Z,78.76
2022-09-24T00:04:13.489Z,78.38
2022-09-24T00:06:43.359Z,79.03
2022-09-24T00:09:11.987Z,79.02
2022-09-24T00:11:40.597Z,78.86
2022-09-24T00:14:09.149Z,78.70
2022-09-24T00:16:37.427Z,78.98
2022-09-24T00:19:06.972Z,79.37
2022-09-24T00:21:36.671Z,79.99
2022-09-24T00:24:07.379Z,79.59
2022-09-24T00:26:49.907Z,79.73
2022-09-24T00:29:19.397Z,79.58
2022-09-24T00:31:47.774Z,79.47
2022-09-24T00:34:17.673Z,79.34
2022-09-24T00:36:46.230Z,79.08
2022-09-24T00:39:14.674Z,78.98
2022-09-24T00:41:47.242Z,79.22
2022-09-24T00:44:50.945Z,79.76
2022-09-24T00:47:29.955Z,79.54
2022-09-24T00:50:06.425Z,79.93
2022-09-24T00:52:35.118Z,79.58
2022-09-24T00:55:03.213Z,79.77
2022-09-24T00:57:31.747Z,79.55
2022-09-24T01:00:00.249Z,79.24
2022-09-24T01:02:28.394Z,78.68
2022-09-24T01:04:56.932Z,79.20
2022-09-24T01:07:26.532Z,79.66
2022-09-24T01:09:54.682Z,79.88
2022-09-24T01:12:28.419Z,80.65
2022-09-24T01:15:05.974Z,79.96
2022-09-24T01:17:38.277Z,79.33
2022-09-24T01:20:29.803Z,79.83
2022-09-24T01:23:15.401Z,80.15
2022-09-24T01:25:50.060Z,79.53
2022-09-24T01:28:35.356Z,79.73
2022-09-24T01:31:08.897Z,79.53
2022-09-24T01:33:37.716Z,79.95
2022-09-24T01:36:08.570Z,80.26
2022-09-24T01:38:39.857Z,79.82
2022-09-24T01:41:08.841Z,79.82
2022-09-24T01:43:38.491Z,80.15
2022-09-24T01:46:08.406Z,79.31
2022-09-24T01:48:37.550Z,80.19
2022-09-24T01:51:10.253Z,79.46
2022-09-24T01:53:42.629Z,79.76
2022-09-24T01:56:15.975Z,80.07
2022-09-24T01:58:48.671Z,80.07
2022-09-24T02:01:20.488Z,79.55
2022-09-24T02:03:52.718Z,79.21
2022-09-24T02:06:26.180Z,79.83
2022-09-24T02:08:57.616Z,79.31
2022-09-24T02:11:25.851Z,80.07
2022-09-24T02:13:56.983Z,79.40
2022-09-24T02:16:29.281Z,80.55
2022-09-24T02:18:59.321Z,79.83
2022-09-24T02:21:28.541Z,79.69
2022-09-24T02:24:06.673Z,79.90
2022-09-24T02:26:34.898Z,79.25
2022-09-24T02:29:03.133Z,79.10
2022-09-24T02:31:34.622Z,80.27
2022-09-24T02:34:23.667Z,79.82
2022-09-24T02:36:54.259Z,79.62
2022-09-24T02:39:22.637Z,80.18
2022-09-24T02:41:51.326Z,79.77
2022-09-24T02:44:19.797Z,80.00
2022-09-24T02:46:50.424Z,80.58
2022-09-24T02:49:18.883Z,80.19
2022-09-24T02:51:46.950Z,80.32
2022-09-24T02:54:15.006Z,80.15
2022-09-24T02:56:43.183Z,80.84
2022-09-24T02:59:12.282Z,81.64
2022-09-24T03:01:40.590Z,80.17
2022-09-24T03:04:10.452Z,81.22
2022-09-24T03:06:38.925Z,81.10
2022-09-24T03:09:07.141Z,80.92
2022-09-24T03:11:35.735Z,81.76
2022-09-24T03:14:03.712Z,80.74
2022-09-24T03:16:31.812Z,81.10
2022-09-24T03:18:59.874Z,81.26
2022-09-24T03:21:29.263Z,81.41
2022-09-24T03:23:57.218Z,80.62
2022-09-24T03:26:25.292Z,81.30
2022-09-24T03:28:53.720Z,80.74
2022-09-24T03:31:23.320Z,81.24
2022-09-24T03:33:51.839Z,81.10
2022-09-24T03:36:21.614Z,81.46
2022-09-24T03:38:52.619Z,80.60
2022-09-24T03:41:20.558Z,81.13
2022-09-24T03:43:48.508Z,81.35
2022-09-24T03:46:17.238Z,81.75
2022-09-24T03:48:47.236Z,81.13
2022-09-24T03:51:20.181Z,80.43
2022-09-24T03:53:49.019Z,81.04
2022-09-24T03:56:18.345Z,80.96
2022-09-24T03:58:47.614Z,80.83
2022-09-24T04:01:21.691Z,80.41
2022-09-24T04:03:50.415Z,81.32
2022-09-24T04:06:23.413Z,80.76
2022-09-24T04:08:54.045Z,80.75
2022-09-24T04:11:23.998Z,80.93
2022-09-24T04:13:52.440Z,81.15
2022-09-24T04:16:20.489Z,80.95
2022-09-24T04:18:48.812Z,81.19
2022-09-24T04:21:16.805Z,81.63
2022-09-24T04:23:44.890Z,80.95
2022-09-24T04:26:12.957Z,81.47
2022-09-24T04:28:42.393Z,80.46
2022-09-24T04:31:10.475Z,80.42
2022-09-24T04:33:38.457Z,81.44
2022-09-24T04:36:06.557Z,80.79
2022-09-24T04:38:34.703Z,80.79
2022-09-24T04:41:06.925Z,80.85
2022-09-24T04:43:36.846Z,81.05
2022-09-24T04:46:06.877Z,80.94
2022-09-24T04:48:38.379Z,81.03
2022-09-24T04:51:06.928Z,81.08
2022-09-24T04:53:36.721Z,80.62
2022-09-24T04:56:05.098Z,80.83
2022-09-24T04:58:33.321Z,81.61
2022-09-24T05:01:03.957Z,81.64
2022-09-24T05:03:33.329Z,81.59
2022-09-24T05:06:01.950Z,81.46
2022-09-24T05:08:30.010Z,81.82
2022-09-24T05:10:58.000Z,81.92
2022-09-24T05:13:26.213Z,80.63
2022-09-24T05:15:54.293Z,81.58
2022-09-24T05:18:22.498Z,80.63
2022-09-24T05:20:52.382Z,82.08
2022-09-24T05:23:20.470Z,81.27
2022-09-24T05:26:06.027Z,81.46
2022-09-24T05:28:35.289Z,81.21
2022-09-24T05:31:03.486Z,81.31
2022-09-24T05:33:31.637Z,80.93
2022-09-24T05:36:00.958Z,81.63
2022-09-24T05:38:29.960Z,81.49
2022-09-24T05:40:58.114Z,81.65
2022-09-24T05:43:27.749Z,81.39
2022-09-24T05:45:58.586Z,82.33
2022-09-24T05:48:26.949Z,81.87
2022-09-24T05:50:55.692Z,81.76
2022-09-24T05:53:25.621Z,82.19
2022-09-24T05:55:53.577Z,81.59
2022-09-24T05:58:21.611Z,81.81
2022-09-24T06:00:49.940Z,81.58
2022-09-24T06:03:19.739Z,82.58
2022-09-24T06:05:49.635Z,82.42
2022-09-24T06:08:18.119Z,82.64
2022-09-24T06:10:48.619Z,81.81
2022-09-24T06:13:18.469Z,81.35
2022-09-24T06:15:47.137Z,82.77
2022-09-24T06:18:15.284Z,82.70
2022-09-24T06:20:43.540Z,81.98
2022-09-24T06:23:11.951Z,82.03
2022-09-24T06:25:39.891Z,82.11
2022-09-24T06:28:09.340Z,82.39
2022-09-24T06:30:39.405Z,82.73
2022-09-24T06:33:09.791Z,83.23
2022-09-24T06:35:38.335Z,83.16
2022-09-24T06:38:07.275Z,83.76
2022-09-24T06:40:37.458Z,83.76
2022-09-24T06:43:06.684Z,82.79
2022-09-24T06:45:36.305Z,83.54
2022-09-24T06:48:05.894Z,83.01
2022-09-24T06:50:35.559Z,83.09
2022-09-24T06:53:06.427Z,83.16
2022-09-24T06:55:34.928Z,83.11
2022-09-24T06:58:04.573Z,82.72
2022-09-24T07:00:32.675Z,82.38
2022-09-24T07:03:02.195Z,82.97
2022-09-24T07:05:30.905Z,82.62
2022-09-24T07:07:58.961Z,82.36
2022-09-24T07:10:28.015Z,82.55
2022-09-24T07:12:56.137Z,83.14
2022-09-24T07:15:24.082Z,82.64
2022-09-24T07:17:56.088Z,82.75
2022-09-24T07:20:28.078Z,82.87
2022-09-24T07:22:56.281Z,82.54
2022-09-24T07:25:24.171Z,82.46
2022-09-24T07:27:52.067Z,82.67
2022-09-24T07:30:20.082Z,82.71
2022-09-24T07:32:50.583Z,82.93
2022-09-24T07:35:21.030Z,82.53
2022-09-24T07:37:50.402Z,81.57
2022-09-24T07:40:18.462Z,81.07
2022-09-24T07:42:49.432Z,80.75
2022-09-24T07:45:18.197Z,80.31
2022-09-24T07:47:46.152Z,80.51
2022-09-24T07:50:14.062Z,80.58
2022-09-24T07:52:41.951Z,80.77
2022-09-24T07:55:11.294Z,81.15
2022-09-24T07:57:39.809Z,80.92
2022-09-24T08:00:09.168Z,80.89
2022-09-24T08:02:40.031Z,80.51
2022-09-24T08:05:08.618Z,80.72
2022-09-24T08:07:36.590Z,80.61
2022-09-24T08:10:05.056Z,80.49
2022-09-24T08:12:34.590Z,80.58
2022-09-24T08:15:02.570Z,80.70
2022-09-24T08:17:30.451Z,80.52
2022-09-24T08:19:58.758Z,80.42
2022-09-24T08:22:26.681Z,80.76
2022-09-24T08:24:54.936Z,80.51
2022-09-24T08:27:24.112Z,80.46
2022-09-24T08:29:53.573Z,80.29
2022-09-24T08:32:21.488Z,80.66
2022-09-24T08:34:49.398Z,80.48
2022-09-24T08:37:17.237Z,80.76
2022-09-24T08:39:45.302Z,80.64
2022-09-24T08:42:20.347Z,80.50
2022-09-24T08:45:07.923Z,80.54
2022-09-24T08:47:38.975Z,80.86
2022-09-24T08:50:15.372Z,80.15
2022-09-24T08:53:00.985Z,80.52
2022-09-24T08:55:33.884Z,80.20
2022-09-24T08:58:09.859Z,80.35
2022-09-24T09:00:43.713Z,79.97
2022-09-24T09:03:18.636Z,80.14
2022-09-24T09:05:53.955Z,80.15
2022-09-24T09:11:23.207Z,80.64
2022-09-24T09:13:54.215Z,80.56
2022-09-24T09:16:24.933Z,80.54
2022-09-24T09:18:57.498Z,80.82
2022-09-24T09:21:29.822Z,80.52
2022-09-24T09:23:59.037Z,80.62
2022-09-24T09:26:27.294Z,80.39
2022-09-24T09:29:00.095Z,80.04
2022-09-24T09:31:36.821Z,80.06
2022-09-24T09:34:29.830Z,80.23
2022-09-24T09:37:07.529Z,79.47
2022-09-24T09:39:40.431Z,80.30
2022-09-24T09:42:26.496Z,81.15
2022-09-24T09:44:54.685Z,81.63
2022-09-24T09:47:26.452Z,80.92
2022-09-24T09:49:59.146Z,81.07
2022-09-24T09:52:29.842Z,80.80
2022-09-24T09:54:57.898Z,80.62
2022-09-24T09:57:26.432Z,80.17
2022-09-24T09:59:55.100Z,79.62
2022-09-24T10:02:25.759Z,79.74
2022-09-24T10:04:57.660Z,79.79
2022-09-24T10:07:25.788Z,80.13
2022-09-24T10:10:05.374Z,80.52
2022-09-24T10:12:33.280Z,80.17
2022-09-24T10:15:02.858Z,80.08
2022-09-24T10:17:35.684Z,79.88
2022-09-24T10:20:09.674Z,79.78
2022-09-24T10:22:39.346Z,79.59
2022-09-24T10:25:07.890Z,79.38
2022-09-24T10:27:37.765Z,79.59
2022-09-24T10:30:31.478Z,79.62
2022-09-24T10:33:00.312Z,79.69
2022-09-24T10:35:31.354Z,80.04
2022-09-24T10:38:01.241Z,79.71
2022-09-24T10:40:31.244Z,79.97
2022-09-24T10:43:01.373Z,79.51
2022-09-24T10:45:43.686Z,79.67
2022-09-24T10:48:18.857Z,79.79
2022-09-24T10:50:54.405Z,80.18
2022-09-24T10:53:31.850Z,79.61
2022-09-24T10:56:05.389Z,80.05
2022-09-24T10:59:00.762Z,80.39
2022-09-24T11:01:33.488Z,80.59
2022-09-24T11:04:20.959Z,80.95
2022-09-24T11:07:09.200Z,80.65
2022-09-24T11:09:43.849Z,80.91
2022-09-24T11:12:16.565Z,80.85
2022-09-24T11:14:56.544Z,81.19
2022-09-24T11:17:33.442Z,81.31
2022-09-24T11:20:17.632Z,81.47
2022-09-24T11:22:57.940Z,81.38
2022-09-24T11:25:32.891Z,81.98
2022-09-24T11:28:14.897Z,82.62
2022-09-24T11:30:48.811Z,83.88
2022-09-24T11:33:27.264Z,84.07
2022-09-24T11:36:06.548Z,83.10
2022-09-24T11:38:49.667Z,82.90
2022-09-24T11:41:27.922Z,83.52
2022-09-24T11:44:18.683Z,82.95
2022-09-24T11:46:56.638Z,82.89
2022-09-24T11:49:39.059Z,83.35
2022-09-24T11:52:10.431Z,83.43
2022-09-24T11:54:45.262Z,83.38
2022-09-24T11:57:17.156Z,83.40
2022-09-24T11:59:51.033Z,83.20
2022-09-24T12:02:23.825Z,83.79
2022-09-24T12:04:58.690Z,83.25
2022-09-24T12:07:31.539Z,83.75
2022-09-24T12:10:04.336Z,83.55
2022-09-24T12:12:34.598Z,83.61
2022-09-24T12:15:05.704Z,83.33
2022-09-24T12:17:37.494Z,82.82
2022-09-24T12:20:09.826Z,82.45
2022-09-24T12:22:39.396Z,82.64
2022-09-24T12:25:13.224Z,82.24
2022-09-24T12:27:41.253Z,82.02
2022-09-24T12:30:43.620Z,81.87
2022-09-24T12:33:16.088Z,82.15
2022-09-24T12:35:55.935Z,82.87
2022-09-24T12:38:26.767Z,82.34
2022-09-24T12:41:12.717Z,81.57
2022-09-24T12:43:43.764Z,81.68
2022-09-24T12:46:17.953Z,81.64
2022-09-24T12:48:46.974Z,81.56
2022-09-24T12:51:15.543Z,81.89
2022-09-24T12:53:45.059Z,81.37
2022-09-24T12:56:24.961Z,81.74
2022-09-24T12:58:53.324Z,82.04
2022-09-24T13:01:30.404Z,81.96
2022-09-24T13:04:06.324Z,81.57
2022-09-24T13:06:36.582Z,82.32
2022-09-24T13:09:25.647Z,82.01
2022-09-24T13:12:04.690Z,81.78
2022-09-24T13:14:33.842Z,81.68
2022-09-24T13:17:06.714Z,81.92
2022-09-24T13:19:40.973Z,82.83
2022-09-24T13:22:21.875Z,82.63
2022-09-24T13:24:51.751Z,82.37
2022-09-24T13:27:24.958Z,82.41
2022-09-24T13:30:06.970Z,82.57
2022-09-24T13:32:38.492Z,82.44
2022-09-24T13:35:12.333Z,82.55
2022-09-24T13:37:42.782Z,82.73
2022-09-24T13:40:19.495Z,82.22
2022-09-24T13:42:51.175Z,82.02
2022-09-24T13:45:21.548Z,82.47
2022-09-24T13:47:52.650Z,82.42
2022-09-24T13:50:23.718Z,82.13
2022-09-24T13:52:54.973Z,82.34
2022-09-24T13:55:24.357Z,81.70
2022-09-24T13:57:53.768Z,81.92
2022-09-24T14:00:24.458Z,81.59
2022-09-24T14:02:58.970Z,81.77
2022-09-24T14:05:27.579Z,81.70
2022-09-24T14:08:04.824Z,81.81
2022-09-24T14:10:33.037Z,81.92
2022-09-24T14:13:17.430Z,81.11
2022-09-24T14:15:56.223Z,80.92
2022-09-24T14:18:25.039Z,81.43
2022-09-24T14:20:57.832Z,81.01
2022-09-24T14:23:28.377Z,81.17
2022-09-24T14:25:56.984Z,81.04
2022-09-24T14:28:26.501Z,80.70
2022-09-24T14:30:56.295Z,80.53
2022-09-24T14:33:27.132Z,80.08
2022-09-24T14:35:56.383Z,79.77
2022-09-24T14:38:26.421Z,79.72
2022-09-24T14:40:56.979Z,79.70
2022-09-24T14:43:31.428Z,80.36
2022-09-24T14:46:04.421Z,80.22
2022-09-24T14:48:33.721Z,80.10
2022-09-24T14:51:02.089Z,81.00
2022-09-24T14:53:34.220Z,81.50
2022-09-24T14:56:03.504Z,81.29
2022-09-24T14:58:37.300Z,81.13
2022-09-24T15:01:08.194Z,80.90
2022-09-24T15:03:40.893Z,80.44
2022-09-24T15:06:19.357Z,80.55
2022-09-24T15:08:54.085Z,80.74
2022-09-24T15:11:27.708Z,80.56
2022-09-24T15:14:01.683Z,81.29
2022-09-24T15:16:32.027Z,80.79
2022-09-24T15:19:11.134Z,80.96
2022-09-24T15:21:39.040Z,80.85
2022-09-24T15:24:07.172Z,80.69
2022-09-24T15:26:37.322Z,80.74
2022-09-24T15:29:07.470Z,80.88
2022-09-24T15:31:35.473Z,81.05
2022-09-24T15:34:03.485Z,81.44
2022-09-24T15:36:31.415Z,81.30
2022-09-24T15:39:02.139Z,80.88
2022-09-24T15:41:30.031Z,81.07
2022-09-24T15:43:59.003Z,80.86
2022-09-24T15:46:28.336Z,81.24
2022-09-24T15:48:56.246Z,80.83
2022-09-24T15:51:24.600Z,81.03
2022-09-24T15:53:52.571Z,81.06
2022-09-24T15:56:20.473Z,81.35
2022-09-24T15:58:48.379Z,81.48
2022-09-24T16:01:19.218Z,81.20
2022-09-24T16:03:48.637Z,80.91
2022-09-24T16:06:16.604Z,80.79
2022-09-24T16:08:44.523Z,81.00
2022-09-24T16:11:12.453Z,80.89
2022-09-24T16:13:40.451Z,80.94
2022-09-24T16:16:08.974Z,81.21
2022-09-24T16:18:39.766Z,81.35
2022-09-24T16:21:09.551Z,81.45
2022-09-24T16:23:37.480Z,80.93
2022-09-24T16:26:05.708Z,81.33
2022-09-24T16:28:33.640Z,81.14
2022-09-24T16:31:06.342Z,80.95
2022-09-24T16:33:38.852Z,81.09
2022-09-24T16:36:07.294Z,81.22
2022-09-24T16:38:37.412Z,81.28
2022-09-24T16:41:06.126Z,81.50
2022-09-24T16:43:34.231Z,81.55
2022-09-24T16:46:03.656Z,81.61
2022-09-24T16:48:31.933Z,81.79
2022-09-24T16:51:04.256Z,81.84
2022-09-24T16:53:34.143Z,81.67
2022-09-24T16:56:08.396Z,81.70
2022-09-24T16:58:36.613Z,81.71
2022-09-24T17:01:06.071Z,81.32
2022-09-24T17:03:34.223Z,81.57
2022-09-24T17:06:02.473Z,81.60
2022-09-24T17:08:45.947Z,81.45
2022-09-24T17:11:16.300Z,81.65
2022-09-24T17:13:44.500Z,82.05
2022-09-24T17:16:12.522Z,82.16
2022-09-24T17:18:40.618Z,82.27
2022-09-24T17:21:11.163Z,82.42
2022-09-24T17:23:39.889Z,82.20
2022-09-24T17:26:11.504Z,82.32
2022-09-24T17:28:42.125Z,82.53
2022-09-24T17:31:11.159Z,82.41
2022-09-24T17:33:43.267Z,82.54
2022-09-24T17:36:14.247Z,82.99
2022-09-24T17:38:43.000Z,82.60
2022-09-24T17:41:13.131Z,82.29
2022-09-24T17:43:43.072Z,82.60
2022-09-24T17:46:14.418Z,82.64
2022-09-24T17:48:44.508Z,82.66
2022-09-24T17:51:15.032Z,82.76
2022-09-24T17:53:43.238Z,82.77
2022-09-24T17:56:12.632Z,82.97
2022-09-24T17:58:43.775Z,83.28
2022-09-24T18:01:13.580Z,83.34
2022-09-24T18:03:42.044Z,83.00
2022-09-24T18:06:13.681Z,83.51
2022-09-24T18:08:42.988Z,83.14
2022-09-24T18:11:12.664Z,83.58
2022-09-24T18:13:42.315Z,83.57
2022-09-24T18:16:12.662Z,83.89
2022-09-24T18:18:41.021Z,83.86
2022-09-24T18:21:11.093Z,83.91
2022-09-24T18:23:39.463Z,83.77
2022-09-24T18:26:10.537Z,83.79
2022-09-24T18:28:39.741Z,83.50
2022-09-24T18:31:10.391Z,83.55
2022-09-24T18:33:40.137Z,83.66
2022-09-24T18:36:10.932Z,84.22
2022-09-24T18:38:39.220Z,83.89
2022-09-24T18:41:09.449Z,83.93
2022-09-24T18:43:37.541Z,84.07
2022-09-24T18:46:31.750Z,83.92
2022-09-24T18:49:00.645Z,84.35
2022-09-24T18:51:29.738Z,84.01
2022-09-24T18:53:59.064Z,84.78
2022-09-24T18:56:27.911Z,84.27
2022-09-24T18:58:56.990Z,84.01
2022-09-24T19:01:25.378Z,84.40
2022-09-24T19:03:55.074Z,84.61
2022-09-24T19:06:23.167Z,84.99
2022-09-24T19:08:51.109Z,84.46
2022-09-24T19:11:19.104Z,84.55
2022-09-24T19:13:49.920Z,84.95
2022-09-24T19:16:19.085Z,84.74
2022-09-24T19:18:47.226Z,84.86
2022-09-24T19:21:16.507Z,84.85
2022-09-24T19:23:46.328Z,85.02
2022-09-24T19:26:16.140Z,84.44
2022-09-24T19:28:45.386Z,84.48
2022-09-24T19:31:14.719Z,84.56
2022-09-24T19:33:42.759Z,84.74
2022-09-24T19:36:11.814Z,84.82
2022-09-24T19:38:42.286Z,85.33
2022-09-24T19:41:13.419Z,85.25
2022-09-24T19:43:43.650Z,85.30
2022-09-24T19:46:14.578Z,85.16
2022-09-24T19:48:44.203Z,85.25
2022-09-24T19:51:15.115Z,85.07
2022-09-24T19:53:44.688Z,85.06
2022-09-24T19:56:13.013Z,84.87
2022-09-24T19:58:41.271Z,84.77
2022-09-24T20:01:13.684Z,84.87
2022-09-24T20:03:44.865Z,84.81
2022-09-24T20:06:18.110Z,85.34
2022-09-24T20:08:48.675Z,84.95
2022-09-24T20:11:20.645Z,85.35
2022-09-24T20:13:48.982Z,85.00
2022-09-24T20:16:19.688Z,85.29
2022-09-24T20:18:48.164Z,84.97
2022-09-24T20:21:18.342Z,85.21
2022-09-24T20:23:48.327Z,85.21
2022-09-24T20:26:34.938Z,84.87
2022-09-24T20:29:03.602Z,84.65
2022-09-24T20:31:31.663Z,84.75
2022-09-24T20:34:00.880Z,85.29
2022-09-24T20:36:29.060Z,84.83
2022-09-24T20:38:58.840Z,84.63
2022-09-24T20:41:27.231Z,85.13
2022-09-24T20:43:56.390Z,84.92
2022-09-24T20:46:25.501Z,85.50
2022-09-24T20:48:53.943Z,85.79
2022-09-24T20:51:22.765Z,86.07
2022-09-24T20:53:51.101Z,86.17
2022-09-24T20:56:21.158Z,85.59
2022-09-24T20:58:50.299Z,86.05
2022-09-24T21:01:18.683Z,85.79
2022-09-24T21:03:49.874Z,85.91
2022-09-24T21:06:20.735Z,85.89
2022-09-24T21:08:48.725Z,85.37
2022-09-24T21:11:19.038Z,86.01
2022-09-24T21:13:50.210Z,85.48
2022-09-24T21:16:19.836Z,86.20
2022-09-24T21:18:48.555Z,86.07
2022-09-24T21:21:17.871Z,86.13
2022-09-24T21:23:47.008Z,85.63
2022-09-24T21:26:16.707Z,85.65
2022-09-24T21:28:45.311Z,86.11
2022-09-24T21:31:15.330Z,85.88
2022-09-24T21:33:46.287Z,86.30
2022-09-24T21:36:18.611Z,86.13
2022-09-24T21:38:47.074Z,86.35
2022-09-24T21:41:15.013Z,86.09
2022-09-24T21:43:42.944Z,86.17
2022-09-24T21:46:11.139Z,86.12
2022-09-24T21:48:40.518Z,86.39
2022-09-24T21:51:09.886Z,86.79
2022-09-24T21:53:38.831Z,86.87
2022-09-24T21:56:07.396Z,86.50
2022-09-24T21:58:35.354Z,86.73
2022-09-24T22:01:05.285Z,86.96
2022-09-24T22:03:33.499Z,86.62
2022-09-24T22:06:04.926Z,86.50
2022-09-24T22:08:33.018Z,87.04
2022-09-24T22:11:02.512Z,86.60
2022-09-24T22:13:31.014Z,86.78
2022-09-24T22:15:59.857Z,87.05
2022-09-24T22:18:28.739Z,87.19
2022-09-24T22:20:57.482Z,87.02
2022-09-24T22:23:26.881Z,87.41
2022-09-24T22:25:56.273Z,87.30
2022-09-24T22:28:25.257Z,87.21
2022-09-24T22:30:53.949Z,86.68
2022-09-24T22:33:40.027Z,87.22
2022-09-24T22:36:08.341Z,86.82
2022-09-24T22:38:37.876Z,87.17
2022-09-24T22:41:10.780Z,87.17
2022-09-24T22:43:39.168Z,86.93
2022-09-24T22:46:09.195Z,86.83
2022-09-24T22:48:37.282Z,86.85
2022-09-24T22:51:06.463Z,86.73
2022-09-24T22:53:35.121Z,87.24
2022-09-24T22:56:05.587Z,86.80
2022-09-24T22:58:33.977Z,87.20
2022-09-24T23:01:08.633Z,86.86
2022-09-24T23:03:36.903Z,86.86
2022-09-24T23:06:06.133Z,86.81
2022-09-24T23:08:34.677Z,86.93
2022-09-24T23:11:08.944Z,86.90
2022-09-24T23:13:38.112Z,86.74
2022-09-24T23:16:11.668Z,87.10
2022-09-24T23:18:39.946Z,86.96
2022-09-24T23:21:09.068Z,86.94
2022-09-24T23:23:37.215Z,87.35
2022-09-24T23:26:07.123Z,87.10
2022-09-24T23:28:37.158Z,87.38
2022-09-24T23:31:05.571Z,87.41
2022-09-24T23:33:34.396Z,87.04
2022-09-24T23:36:03.150Z,87.18
2022-09-24T23:38:31.285Z,87.39
2022-09-24T23:41:00.728Z,86.84
2022-09-24T23:43:29.245Z,87.19
2022-09-24T23:45:58.699Z,87.46
2022-09-24T23:48:27.148Z,86.94
2022-09-24T23:50:55.533Z,87.01
2022-09-24T23:53:23.541Z,87.47
2022-09-24T23:55:53.919Z,87.44
2022-09-24T23:58:25.195Z,87.26
